Time;durP1;ratioP1;P1;durP2;ratioP2;P2;SDS_P1;SDS_P2;PMS_P1;PMS_P2;Temp;Humidity;BMP_temperature;BMP_pressure;BME280_temperature;BME280_humidity;BME280_pressure;Samples;Min_cycle;Max_cycle;Signal;HPM_P1;HPM_P2
2024/01/29 00:01:19;;;;;;;6.85;5.30;;;;;;;;;;4938270;29;20079;-58
2024/01/29 00:03:46;;;;;;;7.35;6.35;;;;;;;;;;4935055;29;20028;-45
2024/01/29 00:06:11;;;;;;;9.65;6.82;;;;;;;;;;4936191;29;20034;-58
2024/01/29 00:08:37;;;;;;;9.75;6.50;;;;;;;;;;4942077;29;20033;-58
2024/01/29 00:11:02;;;;;;;8.75;6.47;;;;;;;;;;4933074;29;20042;-59
2024/01/29 00:13:28;;;;;;;8.50;5.22;;;;;;;;;;4940205;29;20082;-60
2024/01/29 00:15:53;;;;;;;8.45;6.05;;;;;;;;;;4938516;29;20058;-59
2024/01/29 00:18:18;;;;;;;7.47;5.10;;;;;;;;;;4934606;29;20102;-59
2024/01/29 00:20:44;;;;;;;8.15;6.68;;;;;;;;;;4938925;29;20461;-58
2024/01/29 00:23:09;;;;;;;8.70;6.30;;;;;;;;;;4937110;29;20032;-56
2024/01/29 00:25:34;;;;;;;8.95;6.78;;;;;;;;;;4938414;29;20076;-59
2024/01/29 00:28:00;;;;;;;8.23;6.70;;;;;;;;;;4935253;29;20157;-57
2024/01/29 00:30:25;;;;;;;7.65;6.95;;;;;;;;;;4934377;29;20050;-59
2024/01/29 00:32:51;;;;;;;8.20;6.35;;;;;;;;;;4936314;29;20039;-58
2024/01/29 00:35:16;;;;;;;8.93;6.57;;;;;;;;;;4938904;29;20101;-59
2024/01/29 00:37:42;;;;;;;8.77;7.85;;;;;;;;;;4939029;29;20119;-59
2024/01/29 00:40:08;;;;;;;8.20;6.03;;;;;;;;;;4934545;29;20032;-59
2024/01/29 00:42:33;;;;;;;9.30;6.50;;;;;;;;;;4939675;29;20028;-58
2024/01/29 00:44:58;;;;;;;9.57;7.63;;;;;;;;;;4937578;29;20055;-57
2024/01/29 00:47:24;;;;;;;10.57;7.25;;;;;;;;;;4939183;29;20027;-59
2024/01/29 00:49:49;;;;;;;8.70;7.40;;;;;;;;;;4934174;29;20630;-59
2024/01/29 00:52:14;;;;;;;8.55;6.47;;;;;;;;;;4940913;29;20044;-59
2024/01/29 00:54:40;;;;;;;10.35;6.97;;;;;;;;;;4938593;29;20075;-59
2024/01/29 00:57:05;;;;;;;9.25;6.32;;;;;;;;;;4937828;29;20090;-59
2024/01/29 00:59:31;;;;;;;9.25;6.10;;;;;;;;;;4938423;29;20056;-59
2024/01/29 01:01:56;;;;;;;6.90;5.88;;;;;;;;;;4934366;29;20047;-58
2024/01/29 01:04:22;;;;;;;8.52;6.35;;;;;;;;;;4935505;29;20038;-58
2024/01/29 01:06:47;;;;;;;7.22;6.53;;;;;;;;;;4934637;29;20059;-58
2024/01/29 01:09:14;;;;;;;9.25;6.80;;;;;;;;;;4938044;29;20039;-59
2024/01/29 01:11:40;;;;;;;8.35;5.82;;;;;;;;;;4939098;29;20032;-57
2024/01/29 01:14:06;;;;;;;6.90;5.78;;;;;;;;;;4936905;29;20044;-59
2024/01/29 01:16:31;;;;;;;9.55;6.05;;;;;;;;;;4934942;29;20067;-59
2024/01/29 01:18:57;;;;;;;9.45;6.95;;;;;;;;;;4933881;29;20110;-60
2024/01/29 01:21:22;;;;;;;8.27;5.40;;;;;;;;;;4935847;29;20149;-57
2024/01/29 01:23:47;;;;;;;6.25;5.28;;;;;;;;;;4938437;29;20030;-57
2024/01/29 01:26:13;;;;;;;8.52;5.65;;;;;;;;;;4934917;29;20032;-57
2024/01/29 01:28:38;;;;;;;7.07;5.63;;;;;;;;;;4937838;29;20039;-60
2024/01/29 01:31:04;;;;;;;8.00;5.03;;;;;;;;;;4937939;29;20040;-58
2024/01/29 01:33:29;;;;;;;7.68;5.78;;;;;;;;;;4935587;29;20032;-57
2024/01/29 01:35:55;;;;;;;6.00;4.97;;;;;;;;;;4934702;29;20356;-59
2024/01/29 01:38:20;;;;;;;7.70;6.28;;;;;;;;;;4937354;29;20066;-59
2024/01/29 01:40:45;;;;;;;6.72;5.15;;;;;;;;;;4934372;29;20099;-57
2024/01/29 01:43:18;;;;;;;10.18;5.07;;;;;;;;;;4937504;29;20047;-57
2024/01/29 01:45:44;;;;;;;7.15;5.85;;;;;;;;;;4934728;29;20035;-58
2024/01/29 01:48:11;;;;;;;5.55;4.82;;;;;;;;;;4937085;29;20039;-59
2024/01/29 01:50:37;;;;;;;5.47;4.85;;;;;;;;;;4936447;29;20777;-57
2024/01/29 01:53:03;;;;;;;5.63;4.75;;;;;;;;;;4936887;29;20065;-56
2024/01/29 01:55:29;;;;;;;7.53;5.30;;;;;;;;;;4934464;29;20095;-58
2024/01/29 01:57:56;;;;;;;7.35;5.95;;;;;;;;;;4933357;29;20016;-59
2024/01/29 02:00:23;;;;;;;6.55;5.72;;;;;;;;;;4934966;29;20042;-59
2024/01/29 02:02:48;;;;;;;5.70;4.72;;;;;;;;;;4936894;29;20035;-57
2024/01/29 02:05:13;;;;;;;7.40;4.82;;;;;;;;;;4928939;29;20495;-59
2024/01/29 02:07:39;;;;;;;7.03;4.65;;;;;;;;;;4934455;29;20036;-58
2024/01/29 02:10:05;;;;;;;6.97;5.07;;;;;;;;;;4932245;29;20503;-59
2024/01/29 02:12:30;;;;;;;7.65;6.10;;;;;;;;;;4928325;29;20071;-58
2024/01/29 02:14:56;;;;;;;8.55;6.03;;;;;;;;;;4934207;29;20058;-58
2024/01/29 02:17:21;;;;;;;6.20;5.60;;;;;;;;;;4932923;29;20043;-58
2024/01/29 02:19:47;;;;;;;8.18;5.35;;;;;;;;;;4935732;29;20107;-59
2024/01/29 02:22:12;;;;;;;7.25;6.10;;;;;;;;;;4924818;29;20091;-59
2024/01/29 02:24:37;;;;;;;8.55;7.10;;;;;;;;;;4933021;29;20039;-57
2024/01/29 02:27:03;;;;;;;6.47;5.13;;;;;;;;;;4936837;29;20111;-58
2024/01/29 02:29:28;;;;;;;8.07;5.68;;;;;;;;;;4934826;29;20107;-58
2024/01/29 02:31:54;;;;;;;7.03;5.28;;;;;;;;;;4935337;29;20022;-59
2024/01/29 02:34:19;;;;;;;7.00;5.22;;;;;;;;;;4936472;29;20035;-58
2024/01/29 02:36:45;;;;;;;7.75;5.40;;;;;;;;;;4935457;29;20011;-59
2024/01/29 02:39:11;;;;;;;7.68;5.30;;;;;;;;;;4930812;29;20046;-59
2024/01/29 02:41:37;;;;;;;8.57;4.75;;;;;;;;;;4933589;29;20103;-59
2024/01/29 02:44:03;;;;;;;5.90;4.75;;;;;;;;;;4934780;29;20062;-58
2024/01/29 02:46:28;;;;;;;8.07;5.40;;;;;;;;;;4936084;29;20050;-59
2024/01/29 02:48:54;;;;;;;7.85;5.05;;;;;;;;;;4935855;29;20028;-60
2024/01/29 02:51:19;;;;;;;8.10;5.57;;;;;;;;;;4937222;29;20036;-56
2024/01/29 02:53:44;;;;;;;6.13;5.18;;;;;;;;;;4937323;29;20027;-60
2024/01/29 02:56:10;;;;;;;9.70;5.03;;;;;;;;;;4936078;29;20494;-57
2024/01/29 02:58:35;;;;;;;6.63;6.07;;;;;;;;;;4936019;29;20043;-58
2024/01/29 03:01:00;;;;;;;9.95;7.40;;;;;;;;;;4935615;29;20479;-59
2024/01/29 03:03:26;;;;;;;9.70;6.35;;;;;;;;;;4936667;29;20036;-58
2024/01/29 03:05:51;;;;;;;6.95;5.85;;;;;;;;;;4932777;29;20047;-59
2024/01/29 03:08:17;;;;;;;7.68;5.75;;;;;;;;;;4936479;29;20027;-60
2024/01/29 03:10:43;;;;;;;7.78;6.93;;;;;;;;;;4937606;29;20047;-58
2024/01/29 03:13:08;;;;;;;6.85;5.05;;;;;;;;;;4940277;29;20028;-58
2024/01/29 03:15:33;;;;;;;7.32;5.22;;;;;;;;;;4939115;29;20052;-58
2024/01/29 03:17:59;;;;;;;7.03;5.93;;;;;;;;;;4941439;29;20398;-57
2024/01/29 03:20:24;;;;;;;7.90;5.63;;;;;;;;;;4937465;29;20047;-58
2024/01/29 03:22:50;;;;;;;6.07;5.25;;;;;;;;;;4928799;29;20043;-59
2024/01/29 03:25:15;;;;;;;7.72;5.13;;;;;;;;;;4939922;29;20036;-59
2024/01/29 03:27:40;;;;;;;8.88;5.28;;;;;;;;;;4939317;29;20024;-58
2024/01/29 03:30:06;;;;;;;7.25;5.68;;;;;;;;;;4937372;29;20122;-58
2024/01/29 03:32:32;;;;;;;6.32;4.70;;;;;;;;;;4941980;29;20035;-57
2024/01/29 03:34:57;;;;;;;8.23;5.10;;;;;;;;;;4937428;29;20506;-56
2024/01/29 03:37:22;;;;;;;6.75;6.05;;;;;;;;;;4938151;29;20067;-59
2024/01/29 03:39:48;;;;;;;7.82;5.25;;;;;;;;;;4935552;29;20485;-59
2024/01/29 03:42:13;;;;;;;9.32;6.53;;;;;;;;;;4934816;29;20028;-58
2024/01/29 03:44:38;;;;;;;8.05;5.97;;;;;;;;;;4936471;29;20130;-58
2024/01/29 03:47:04;;;;;;;7.40;5.78;;;;;;;;;;4939770;29;20024;-58
2024/01/29 03:49:29;;;;;;;10.50;6.85;;;;;;;;;;4938752;29;20532;-58
2024/01/29 03:51:55;;;;;;;8.77;6.20;;;;;;;;;;4940461;29;20028;-59
2024/01/29 03:54:20;;;;;;;11.80;6.53;;;;;;;;;;4929393;29;20048;-59
2024/01/29 03:56:45;;;;;;;6.70;4.82;;;;;;;;;;4939522;29;20042;-59
2024/01/29 03:59:11;;;;;;;9.15;5.63;;;;;;;;;;4934432;29;20044;-57
2024/01/29 04:01:37;;;;;;;7.60;5.20;;;;;;;;;;4938990;29;20397;-59
2024/01/29 04:04:03;;;;;;;7.15;5.53;;;;;;;;;;4938649;29;20792;-59
2024/01/29 04:06:29;;;;;;;6.22;5.40;;;;;;;;;;4939044;29;20036;-59
2024/01/29 04:08:54;;;;;;;7.40;5.03;;;;;;;;;;4936543;29;20066;-59
2024/01/29 04:11:19;;;;;;;9.38;5.15;;;;;;;;;;4937391;29;20028;-58
2024/01/29 04:13:45;;;;;;;7.32;4.75;;;;;;;;;;4938222;29;20028;-53
2024/01/29 04:16:11;;;;;;;9.23;4.78;;;;;;;;;;4938331;29;20413;-58
2024/01/29 04:18:38;;;;;;;5.93;4.65;;;;;;;;;;4937614;29;20199;-58
2024/01/29 04:21:05;;;;;;;5.85;4.45;;;;;;;;;;4928946;28;20043;-58
2024/01/29 04:23:30;;;;;;;6.07;3.72;;;;;;;;;;4937097;29;20036;-59
2024/01/29 04:25:56;;;;;;;6.82;4.05;;;;;;;;;;4932876;29;20518;-59
2024/01/29 04:28:21;;;;;;;5.70;4.35;;;;;;;;;;4939629;29;20521;-58
2024/01/29 04:30:46;;;;;;;6.10;4.45;;;;;;;;;;4936509;28;20032;-56
2024/01/29 04:33:12;;;;;;;6.68;3.53;;;;;;;;;;4940013;29;20031;-59
2024/01/29 04:35:37;;;;;;;4.90;4.22;;;;;;;;;;4937317;29;20031;-59
2024/01/29 04:38:03;;;;;;;6.22;3.45;;;;;;;;;;4938738;29;20095;-59
2024/01/29 04:40:28;;;;;;;5.45;3.67;;;;;;;;;;4938651;29;20050;-60
2024/01/29 04:42:54;;;;;;;8.40;3.78;;;;;;;;;;4939629;29;20034;-58
2024/01/29 04:45:19;;;;;;;6.78;3.72;;;;;;;;;;4936899;29;20047;-56
2024/01/29 04:47:44;;;;;;;5.18;4.68;;;;;;;;;;4939485;29;20059;-57
2024/01/29 04:50:10;;;;;;;4.63;3.28;;;;;;;;;;4936726;29;20095;-59
2024/01/29 04:52:35;;;;;;;7.10;4.03;;;;;;;;;;4935924;29;20032;-59
2024/01/29 04:55:01;;;;;;;5.55;4.45;;;;;;;;;;4938636;29;20039;-59
2024/01/29 04:57:26;;;;;;;6.03;4.20;;;;;;;;;;4939375;29;20031;-57
2024/01/29 04:59:52;;;;;;;4.88;4.10;;;;;;;;;;4936497;29;20525;-59
2024/01/29 05:02:17;;;;;;;6.10;4.05;;;;;;;;;;4938210;29;20035;-57
2024/01/29 05:04:43;;;;;;;5.72;3.67;;;;;;;;;;4931127;29;20040;-57
2024/01/29 05:07:08;;;;;;;6.75;4.13;;;;;;;;;;4939067;29;20058;-58
2024/01/29 05:09:33;;;;;;;5.03;3.70;;;;;;;;;;4935213;29;20051;-55
2024/01/29 05:11:59;;;;;;;6.18;5.00;;;;;;;;;;4939233;29;20038;-59
2024/01/29 05:14:27;;;;;;;5.60;3.60;;;;;;;;;;4938037;29;20495;-59
2024/01/29 05:16:52;;;;;;;5.28;3.33;;;;;;;;;;4930901;29;20052;-58
2024/01/29 05:19:17;;;;;;;6.05;3.58;;;;;;;;;;4933302;29;20758;-57
2024/01/29 05:21:43;;;;;;;6.15;3.67;;;;;;;;;;4939202;29;20442;-57
2024/01/29 05:24:08;;;;;;;6.18;3.78;;;;;;;;;;4936416;29;20552;-60
2024/01/29 05:26:34;;;;;;;5.70;3.92;;;;;;;;;;4938014;29;20051;-59
2024/01/29 05:28:59;;;;;;;4.45;4.03;;;;;;;;;;4932965;29;20620;-58
2024/01/29 05:31:24;;;;;;;5.05;4.03;;;;;;;;;;4938125;29;20118;-59
2024/01/29 05:33:50;;;;;;;6.30;4.30;;;;;;;;;;4934816;29;20656;-56
2024/01/29 05:36:15;;;;;;;7.90;3.88;;;;;;;;;;4935808;29;20019;-57
2024/01/29 05:38:41;;;;;;;4.97;3.47;;;;;;;;;;4937898;29;20094;-58
2024/01/29 05:41:06;;;;;;;6.35;4.68;;;;;;;;;;4936136;29;20039;-58
2024/01/29 05:43:31;;;;;;;8.35;4.15;;;;;;;;;;4938059;29;20030;-59
2024/01/29 05:45:57;;;;;;;4.30;3.55;;;;;;;;;;4935658;29;20044;-58
2024/01/29 05:48:22;;;;;;;4.60;3.53;;;;;;;;;;4935103;29;20024;-57
2024/01/29 05:50:47;;;;;;;7.10;4.30;;;;;;;;;;4935704;29;20054;-60
2024/01/29 05:53:13;;;;;;;7.20;3.88;;;;;;;;;;4931289;29;20027;-58
2024/01/29 05:55:39;;;;;;;5.00;3.60;;;;;;;;;;4929310;29;20048;-54
2024/01/29 05:58:06;;;;;;;5.22;3.40;;;;;;;;;;4934929;29;20057;-58
2024/01/29 06:00:31;;;;;;;6.47;4.05;;;;;;;;;;4934303;29;20039;-59
2024/01/29 06:02:56;;;;;;;5.57;3.40;;;;;;;;;;4932100;29;20035;-59
2024/01/29 06:05:22;;;;;;;8.18;4.13;;;;;;;;;;4931881;29;20044;-58
2024/01/29 06:07:47;;;;;;;5.55;3.75;;;;;;;;;;4935650;29;20027;-57
2024/01/29 06:10:14;;;;;;;5.22;3.75;;;;;;;;;;4935823;29;20115;-56
2024/01/29 06:12:40;;;;;;;4.50;3.47;;;;;;;;;;4935762;29;20031;-57
2024/01/29 06:15:06;;;;;;;8.43;3.65;;;;;;;;;;4934209;29;20068;-58
2024/01/29 06:17:32;;;;;;;7.53;4.80;;;;;;;;;;4931861;29;20093;-57
2024/01/29 06:19:57;;;;;;;5.70;4.63;;;;;;;;;;4935411;29;20043;-59
2024/01/29 06:22:22;;;;;;;5.30;4.05;;;;;;;;;;4934640;29;20028;-57
2024/01/29 06:24:48;;;;;;;5.78;4.20;;;;;;;;;;4934519;29;20063;-58
2024/01/29 06:27:13;;;;;;;4.50;3.97;;;;;;;;;;4933823;29;20090;-55
2024/01/29 06:29:39;;;;;;;4.97;4.03;;;;;;;;;;4933575;29;20058;-56
2024/01/29 06:32:04;;;;;;;5.18;3.95;;;;;;;;;;4936207;29;20123;-59
2024/01/29 06:34:31;;;;;;;6.50;3.78;;;;;;;;;;4932012;29;20048;-59
2024/01/29 06:36:57;;;;;;;6.38;5.28;;;;;;;;;;4932697;29;20032;-59
2024/01/29 06:39:24;;;;;;;6.00;3.80;;;;;;;;;;4933967;29;20044;-58
2024/01/29 06:41:50;;;;;;;5.63;4.30;;;;;;;;;;4930892;29;20024;-56
2024/01/29 06:44:15;;;;;;;6.88;4.65;;;;;;;;;;4932887;28;20061;-58
2024/01/29 06:46:41;;;;;;;6.20;4.90;;;;;;;;;;4935105;29;20051;-58
2024/01/29 06:49:06;;;;;;;4.53;4.10;;;;;;;;;;4932356;29;20051;-58
2024/01/29 06:51:32;;;;;;;5.18;3.55;;;;;;;;;;4932835;29;20051;-60
2024/01/29 06:53:58;;;;;;;5.28;4.57;;;;;;;;;;4933860;29;20028;-59
2024/01/29 06:56:24;;;;;;;7.15;4.47;;;;;;;;;;4935524;29;20036;-60
2024/01/29 06:58:49;;;;;;;5.90;4.40;;;;;;;;;;4935463;29;20430;-57
2024/01/29 07:01:21;;;;;;;5.05;4.53;;;;;;;;;;4935643;29;20446;-55
2024/01/29 07:03:47;;;;;;;7.20;5.65;;;;;;;;;;4933637;29;20059;-58
2024/01/29 07:06:12;;;;;;;5.50;5.00;;;;;;;;;;4936370;29;20055;-60
2024/01/29 07:08:38;;;;;;;18.20;10.02;;;;;;;;;;4933810;29;20030;-58
2024/01/29 07:11:03;;;;;;;16.73;7.80;;;;;;;;;;4933729;29;20048;-59
2024/01/29 07:13:28;;;;;;;12.40;8.15;;;;;;;;;;4928451;29;20110;-60
2024/01/29 07:15:54;;;;;;;10.07;7.18;;;;;;;;;;4931560;29;20142;-58
2024/01/29 07:18:21;;;;;;;15.23;10.90;;;;;;;;;;4931756;29;20039;-59
2024/01/29 07:20:46;;;;;;;12.32;8.23;;;;;;;;;;4927734;29;20037;-58
2024/01/29 07:23:11;;;;;;;9.05;5.03;;;;;;;;;;4934790;29;21114;-59
2024/01/29 07:25:40;;;;;;;6.65;5.68;;;;;;;;;;4936726;29;20027;-59
2024/01/29 07:28:06;;;;;;;8.48;4.90;;;;;;;;;;4926673;29;20058;-59
2024/01/29 07:30:32;;;;;;;10.68;5.25;;;;;;;;;;4934227;29;20056;-58
2024/01/29 07:32:58;;;;;;;9.48;6.03;;;;;;;;;;4935355;29;20055;-57
2024/01/29 07:35:24;;;;;;;6.55;5.05;;;;;;;;;;4925654;29;20036;-57
2024/01/29 07:37:49;;;;;;;7.10;5.57;;;;;;;;;;4933869;29;20509;-58
2024/01/29 07:40:15;;;;;;;7.55;5.40;;;;;;;;;;4930687;29;20050;-56
2024/01/29 07:42:40;;;;;;;8.10;5.43;;;;;;;;;;4933483;29;20032;-59
2024/01/29 07:45:06;;;;;;;7.13;4.75;;;;;;;;;;4933768;29;20103;-58
2024/01/29 07:47:32;;;;;;;6.55;4.40;;;;;;;;;;4937157;29;20059;-58
2024/01/29 07:49:57;;;;;;;8.32;5.15;;;;;;;;;;4929939;29;20040;-57
2024/01/29 07:52:22;;;;;;;7.70;5.38;;;;;;;;;;4933133;29;20062;-54
2024/01/29 07:54:48;;;;;;;6.22;4.28;;;;;;;;;;4932959;29;20498;-53
2024/01/29 07:57:13;;;;;;;6.55;4.60;;;;;;;;;;4937743;29;20040;-55
2024/01/29 07:59:40;;;;;;;7.15;5.55;;;;;;;;;;4936886;29;20039;-57
2024/01/29 08:02:06;;;;;;;6.80;5.00;;;;;;;;;;4932817;29;20054;-55
2024/01/29 08:04:32;;;;;;;7.72;5.22;;;;;;;;;;4937742;29;20051;-59
2024/01/29 08:06:58;;;;;;;8.98;5.57;;;;;;;;;;4934012;29;20035;-59
2024/01/29 08:09:26;;;;;;;7.47;4.90;;;;;;;;;;4936938;29;20046;-57
2024/01/29 08:11:51;;;;;;;7.18;5.20;;;;;;;;;;4932417;29;20051;-56
2024/01/29 08:14:17;;;;;;;7.40;5.63;;;;;;;;;;4935003;29;20043;-53
2024/01/29 08:16:42;;;;;;;7.45;6.22;;;;;;;;;;4935626;29;20123;-54
2024/01/29 08:19:09;;;;;;;7.65;5.05;;;;;;;;;;4932699;29;20138;-55
2024/01/29 08:21:34;;;;;;;6.53;4.82;;;;;;;;;;4936132;29;20031;-58
2024/01/29 08:23:59;;;;;;;7.03;4.63;;;;;;;;;;4933269;29;20036;-58
2024/01/29 08:26:25;;;;;;;5.07;4.35;;;;;;;;;;4935021;29;20040;-56
2024/01/29 08:28:51;;;;;;;6.30;4.53;;;;;;;;;;4928456;29;20091;-58
2024/01/29 08:31:16;;;;;;;6.80;6.20;;;;;;;;;;4932050;29;20524;-56
2024/01/29 08:33:44;;;;;;;6.05;4.25;;;;;;;;;;4936959;29;20032;-57
2024/01/29 08:36:10;;;;;;;5.75;5.18;;;;;;;;;;4934807;29;20618;-59
2024/01/29 08:38:35;;;;;;;8.65;4.65;;;;;;;;;;4936371;29;20051;-59
2024/01/29 08:41:01;;;;;;;7.07;5.35;;;;;;;;;;4937121;29;20043;-59
2024/01/29 08:43:26;;;;;;;7.60;5.57;;;;;;;;;;4932185;29;20779;-58
2024/01/29 08:45:51;;;;;;;5.28;4.35;;;;;;;;;;4937648;29;20103;-57
2024/01/29 08:48:17;;;;;;;5.75;4.43;;;;;;;;;;4936392;29;20115;-59
2024/01/29 08:50:42;;;;;;;6.25;4.30;;;;;;;;;;4938180;29;20047;-58
2024/01/29 08:53:08;;;;;;;4.90;4.13;;;;;;;;;;4939141;29;20509;-57
2024/01/29 08:55:33;;;;;;;6.30;4.65;;;;;;;;;;4938704;29;20077;-58
2024/01/29 08:57:58;;;;;;;7.72;4.88;;;;;;;;;;4931358;29;20713;-59
2024/01/29 09:00:24;;;;;;;6.95;5.32;;;;;;;;;;4935739;29;20035;-58
2024/01/29 09:02:49;;;;;;;6.05;5.53;;;;;;;;;;4934291;29;20108;-59
2024/01/29 09:05:16;;;;;;;7.32;5.15;;;;;;;;;;4935293;29;20420;-58
2024/01/29 09:07:41;;;;;;;7.93;6.00;;;;;;;;;;4937862;29;20034;-58
2024/01/29 09:10:07;;;;;;;6.63;6.03;;;;;;;;;;4936857;29;20498;-59
2024/01/29 09:12:32;;;;;;;5.35;4.85;;;;;;;;;;4934818;29;20043;-59
2024/01/29 09:14:58;;;;;;;6.22;4.80;;;;;;;;;;4932521;29;20040;-54
2024/01/29 09:17:23;;;;;;;5.25;4.68;;;;;;;;;;4933444;29;20449;-59
2024/01/29 09:19:51;;;;;;;6.88;4.43;;;;;;;;;;4934644;29;20067;-59
2024/01/29 09:22:17;;;;;;;4.88;3.70;;;;;;;;;;4935693;29;20035;-59
2024/01/29 09:24:42;;;;;;;5.80;4.82;;;;;;;;;;4934571;29;20044;-59
2024/01/29 09:27:08;;;;;;;5.20;3.95;;;;;;;;;;4932050;29;20039;-59
2024/01/29 09:29:33;;;;;;;5.10;4.25;;;;;;;;;;4936810;29;20470;-59
2024/01/29 09:31:58;;;;;;;7.32;4.93;;;;;;;;;;4934264;29;20044;-58
2024/01/29 09:34:24;;;;;;;6.47;5.32;;;;;;;;;;4935121;29;20150;-59
2024/01/29 09:36:50;;;;;;;5.40;4.85;;;;;;;;;;4931870;29;20070;-57
2024/01/29 09:39:17;;;;;;;6.45;4.38;;;;;;;;;;4936366;29;20048;-59
2024/01/29 09:41:42;;;;;;;4.85;4.30;;;;;;;;;;4936506;29;20046;-59
2024/01/29 09:44:09;;;;;;;4.88;4.00;;;;;;;;;;4934399;29;20040;-60
2024/01/29 09:46:37;;;;;;;8.07;4.30;;;;;;;;;;4936586;29;20023;-60
2024/01/29 09:49:04;;;;;;;4.07;3.67;;;;;;;;;;4936601;29;20043;-59
2024/01/29 09:51:31;;;;;;;5.65;3.63;;;;;;;;;;4931199;29;20059;-59
2024/01/29 09:53:59;;;;;;;5.93;4.25;;;;;;;;;;4936030;29;20035;-59
2024/01/29 09:56:24;;;;;;;4.97;4.38;;;;;;;;;;4933905;29;20047;-59
2024/01/29 09:58:50;;;;;;;5.40;4.22;;;;;;;;;;4932139;29;20039;-57
2024/01/29 10:01:18;;;;;;;7.25;4.47;;;;;;;;;;4933874;29;20031;-59
2024/01/29 10:03:44;;;;;;;5.70;3.95;;;;;;;;;;4937111;29;20035;-57
2024/01/29 10:06:10;;;;;;;6.97;4.15;;;;;;;;;;4934414;29;20592;-58
2024/01/29 10:08:37;;;;;;;5.70;4.15;;;;;;;;;;4935200;29;20024;-58
2024/01/29 10:11:03;;;;;;;6.45;4.15;;;;;;;;;;4935384;29;20096;-59
2024/01/29 10:13:29;;;;;;;5.30;4.15;;;;;;;;;;4929281;29;20474;-59
2024/01/29 10:15:55;;;;;;;5.53;3.53;;;;;;;;;;4934957;28;20048;-57
2024/01/29 10:18:21;;;;;;;4.53;3.95;;;;;;;;;;4934821;29;20763;-59
2024/01/29 10:20:46;;;;;;;6.28;3.85;;;;;;;;;;4935859;29;20039;-59
2024/01/29 10:23:12;;;;;;;5.03;3.72;;;;;;;;;;4935980;29;20091;-60
2024/01/29 10:25:39;;;;;;;4.93;3.97;;;;;;;;;;4928842;29;20047;-59
2024/01/29 10:28:11;;;;;;;5.60;3.92;;;;;;;;;;4937371;29;20055;-58
2024/01/29 10:30:39;;;;;;;4.88;3.22;;;;;;;;;;4930067;29;20111;-58
2024/01/29 10:33:05;;;;;;;6.35;3.80;;;;;;;;;;4937324;29;20075;-58
2024/01/29 10:35:30;;;;;;;5.70;3.72;;;;;;;;;;4933222;29;20032;-59
2024/01/29 10:38:04;;;;;;;3.63;3.28;;;;;;;;;;4949170;28;20047;-59
2024/01/29 10:40:34;;;;;;;4.05;2.85;;;;;;;;;;4933342;29;20036;-59
2024/01/29 10:43:00;;;;;;;8.07;3.33;;;;;;;;;;4936436;29;20059;-58
2024/01/29 10:45:27;;;;;;;5.82;2.92;;;;;;;;;;4936275;29;20068;-60
2024/01/29 10:48:07;;;;;;;2.78;2.42;;;;;;;;;;4935564;29;20024;-60
2024/01/29 10:50:33;;;;;;;5.60;4.55;;;;;;;;;;4926429;29;20147;-59
2024/01/29 10:53:01;;;;;;;4.75;3.35;;;;;;;;;;4940939;28;20066;-58
2024/01/29 10:55:30;;;;;;;4.25;3.40;;;;;;;;;;4933714;29;20044;-59
2024/01/29 10:58:01;;;;;;;5.57;3.83;;;;;;;;;;4935443;29;20059;-60
2024/01/29 11:00:26;;;;;;;6.60;5.07;;;;;;;;;;4933231;29;20051;-59
2024/01/29 11:02:53;;;;;;;6.85;3.80;;;;;;;;;;4931563;29;20023;-59
2024/01/29 11:05:20;;;;;;;6.55;4.07;;;;;;;;;;4934714;29;20127;-60
2024/01/29 11:07:46;;;;;;;5.50;4.63;;;;;;;;;;4932296;29;20090;-59
2024/01/29 11:10:21;;;;;;;7.05;3.50;;;;;;;;;;4930724;29;20058;-59
2024/01/29 11:12:48;;;;;;;;;;;;;;;;;;4934217;29;20027;-60
2024/01/29 11:15:14;;;;;;;4.55;4.15;;;;;;;;;;4928177;29;19919;-60
2024/01/29 11:17:40;;;;;;;6.90;4.10;;;;;;;;;;4931991;29;20084;-60
2024/01/29 11:20:24;;;;;;;6.07;3.47;;;;;;;;;;4932572;29;20118;-60
2024/01/29 11:22:57;;;;;;;6.95;4.32;;;;;;;;;;4924800;29;20044;-60
2024/01/29 11:25:22;;;;;;;5.80;4.88;;;;;;;;;;4927564;29;20047;-58
2024/01/29 11:27:49;;;;;;;6.95;4.70;;;;;;;;;;4932804;29;20035;-60
2024/01/29 11:30:20;;;;;;;7.72;5.00;;;;;;;;;;4934884;29;20044;-58
2024/01/29 11:32:46;;;;;;;5.97;4.65;;;;;;;;;;4939318;29;20020;-60
2024/01/29 11:35:20;;;;;;;9.68;4.55;;;;;;;;;;4935422;29;20074;-60
2024/01/29 11:37:49;;;;;;;5.97;4.10;;;;;;;;;;4932717;29;20036;-60
2024/01/29 11:40:40;;;;;;;8.23;5.00;;;;;;;;;;4933328;29;20171;-59
2024/01/29 11:43:09;;;;;;;7.95;6.13;;;;;;;;;;4935299;29;20023;-59
2024/01/29 11:45:36;;;;;;;7.85;5.43;;;;;;;;;;4933947;29;20427;-59
2024/01/29 11:48:02;;;;;;;5.97;5.35;;;;;;;;;;4929882;29;20046;-59
2024/01/29 11:50:27;;;;;;;6.18;4.40;;;;;;;;;;4933942;29;20043;-60
2024/01/29 11:52:53;;;;;;;6.88;5.47;;;;;;;;;;4937441;29;20470;-60
2024/01/29 11:55:19;;;;;;;8.48;6.03;;;;;;;;;;4938751;29;20054;-58
2024/01/29 11:57:45;;;;;;;8.75;5.53;;;;;;;;;;4933402;29;20042;-60
2024/01/29 12:00:11;;;;;;;7.72;5.88;;;;;;;;;;4934274;29;20514;-60
2024/01/29 12:02:37;;;;;;;9.43;6.15;;;;;;;;;;4933124;29;20027;-59
2024/01/29 12:05:03;;;;;;;10.07;5.63;;;;;;;;;;4932621;29;20054;-59
2024/01/29 12:07:28;;;;;;;10.75;6.22;;;;;;;;;;4935917;29;20038;-60
2024/01/29 12:09:54;;;;;;;9.77;5.97;;;;;;;;;;4938509;29;20639;-60
2024/01/29 12:12:19;;;;;;;7.45;5.57;;;;;;;;;;4939178;29;20065;-60
2024/01/29 12:14:45;;;;;;;6.68;5.13;;;;;;;;;;4926761;29;20099;-60
2024/01/29 12:17:12;;;;;;;7.53;5.65;;;;;;;;;;4936480;29;20059;-60
2024/01/29 12:19:38;;;;;;;6.85;5.70;;;;;;;;;;4930261;29;20071;-61
2024/01/29 12:22:04;;;;;;;7.38;6.40;;;;;;;;;;4932256;29;20062;-60
2024/01/29 12:24:30;;;;;;;6.63;5.63;;;;;;;;;;4935300;29;20143;-59
2024/01/29 12:26:55;;;;;;;9.82;6.45;;;;;;;;;;4933752;29;20031;-58
2024/01/29 12:29:21;;;;;;;6.57;4.90;;;;;;;;;;4929923;29;20062;-60
2024/01/29 12:31:46;;;;;;;6.97;4.97;;;;;;;;;;4933948;29;20585;-60
2024/01/29 12:34:20;;;;;;;7.35;5.55;;;;;;;;;;4937088;29;20055;-60
2024/01/29 12:36:53;;;;;;;6.82;5.57;;;;;;;;;;4930111;29;20047;-60
2024/01/29 12:39:18;;;;;;;6.88;5.60;;;;;;;;;;4936137;29;20076;-60
2024/01/29 12:41:44;;;;;;;7.95;6.13;;;;;;;;;;4935513;29;20032;-60
2024/01/29 12:44:10;;;;;;;8.88;5.45;;;;;;;;;;4938861;29;20060;-60
2024/01/29 12:46:36;;;;;;;7.32;5.78;;;;;;;;;;4938012;29;20028;-61
2024/01/29 12:49:05;;;;;;;7.38;6.60;;;;;;;;;;4936714;29;20028;-60
2024/01/29 12:51:31;;;;;;;8.15;6.65;;;;;;;;;;4939353;29;20488;-60
2024/01/29 12:53:57;;;;;;;6.82;5.22;;;;;;;;;;4935911;29;20023;-59
2024/01/29 12:56:28;;;;;;;7.85;5.63;;;;;;;;;;4937202;29;20630;-60
2024/01/29 12:58:53;;;;;;;9.00;5.18;;;;;;;;;;4935749;29;20066;-60
2024/01/29 13:01:18;;;;;;;6.25;5.32;;;;;;;;;;4934209;29;20066;-60
2024/01/29 13:03:44;;;;;;;5.43;4.90;;;;;;;;;;4938802;29;20044;-60
2024/01/29 13:06:11;;;;;;;10.70;5.80;;;;;;;;;;4935448;29;20040;-61
2024/01/29 13:08:36;;;;;;;10.98;5.97;;;;;;;;;;4937969;29;20544;-59
2024/01/29 13:11:02;;;;;;;7.50;5.30;;;;;;;;;;4935752;29;20159;-60
2024/01/29 13:13:27;;;;;;;6.78;5.93;;;;;;;;;;4938176;29;20024;-60
2024/01/29 13:15:53;;;;;;;8.65;5.88;;;;;;;;;;4935951;29;20043;-60
2024/01/29 13:18:18;;;;;;;6.47;4.97;;;;;;;;;;4938357;29;20028;-59
2024/01/29 13:20:44;;;;;;;6.88;4.88;;;;;;;;;;4936075;29;20042;-60
2024/01/29 13:23:09;;;;;;;7.15;5.38;;;;;;;;;;4936608;29;20042;-59
2024/01/29 13:25:35;;;;;;;6.28;4.95;;;;;;;;;;4937915;29;20027;-60
2024/01/29 13:28:03;;;;;;;5.47;4.93;;;;;;;;;;4938385;29;20031;-60
2024/01/29 13:30:28;;;;;;;7.70;5.32;;;;;;;;;;4938443;29;20040;-59
2024/01/29 13:32:53;;;;;;;6.63;5.47;;;;;;;;;;4930143;29;20030;-60
2024/01/29 13:35:21;;;;;;;6.07;4.18;;;;;;;;;;4935261;29;20060;-59
2024/01/29 13:37:46;;;;;;;6.65;4.80;;;;;;;;;;4936153;29;20677;-60
2024/01/29 13:40:12;;;;;;;8.45;4.60;;;;;;;;;;4928888;29;20063;-60
2024/01/29 13:42:37;;;;;;;7.68;5.40;;;;;;;;;;4934915;29;20032;-60
2024/01/29 13:45:04;;;;;;;5.90;4.72;;;;;;;;;;4936216;29;20091;-60
2024/01/29 13:47:29;;;;;;;7.38;4.72;;;;;;;;;;4934885;29;20035;-59
2024/01/29 13:49:55;;;;;;;5.55;4.95;;;;;;;;;;4934501;29;20039;-59
2024/01/29 13:52:20;;;;;;;6.65;5.22;;;;;;;;;;4930973;29;20034;-60
2024/01/29 13:54:46;;;;;;;9.80;6.20;;;;;;;;;;4933494;29;20060;-59
2024/01/29 13:57:12;;;;;;;6.18;4.50;;;;;;;;;;4932601;29;20074;-60
2024/01/29 13:59:37;;;;;;;7.25;4.72;;;;;;;;;;4934794;29;20470;-60
2024/01/29 14:02:03;;;;;;;7.45;4.40;;;;;;;;;;4936556;29;20051;-60
2024/01/29 14:04:28;;;;;;;6.40;5.25;;;;;;;;;;4934602;29;20047;-61
2024/01/29 14:07:00;;;;;;;8.20;5.25;;;;;;;;;;4934989;29;20051;-60
2024/01/29 14:09:27;;;;;;;8.65;4.25;;;;;;;;;;4933789;29;20115;-60
2024/01/29 14:11:52;;;;;;;7.78;5.28;;;;;;;;;;4937499;29;20067;-60
2024/01/29 14:14:17;;;;;;;5.85;5.03;;;;;;;;;;4933205;29;20046;-60
2024/01/29 14:16:43;;;;;;;7.53;5.15;;;;;;;;;;4934648;29;20043;-60
2024/01/29 14:19:11;;;;;;;6.75;4.88;;;;;;;;;;4933344;29;20597;-61
2024/01/29 14:21:36;;;;;;;9.57;5.07;;;;;;;;;;4933662;29;20040;-60
2024/01/29 14:24:02;;;;;;;8.95;4.57;;;;;;;;;;4935463;29;20031;-59
2024/01/29 14:26:27;;;;;;;9.35;5.80;;;;;;;;;;4936290;29;20031;-60
2024/01/29 14:28:53;;;;;;;8.75;6.63;;;;;;;;;;4932741;29;20528;-60
2024/01/29 14:31:18;;;;;;;8.15;6.10;;;;;;;;;;4933984;29;20724;-59
2024/01/29 14:33:44;;;;;;;6.80;4.82;;;;;;;;;;4926802;29;20028;-59
2024/01/29 14:36:09;;;;;;;6.40;4.97;;;;;;;;;;4934049;29;20040;-60